KCFV - Coffeyville, Kansas, USA
Distance from station: ENE 93mi, 150km
Updated: Fri, 10-Apr-2020 12:52am PDT
Clear
Clear
 Wind from NNE
Wind: NNE 9 mph , 15 km/h
Temperature: 39°F , 4°C
Wind Chill: 33°F , 1°C
Dew Point: 23°F , -5°C
Humidity: 52%
Barometer: 30.20 inHg , 1022.7 hPa
Clouds: Clear
Visibility: 10 miles , 16 km
2020/04/10 07:52 KCFV 100752Z AUTO 02008KT 10SM CLR 04/M05 A3020 RMK AO2 SLP227 T00441050
KIDP - Independence, Kansas, USA
Distance from station: NE 86mi, 138km
Updated: Fri, 10-Apr-2020 12:55am PDT
Clear
Clear
 Wind from NE
Wind: NE 7 mph , 11 km/h
Temperature: 39°F , 4°C
Wind Chill: 34°F , 1°C
Dew Point: 23°F , -5°C
Humidity: 52%
Barometer: 30.21 inHg , 1023 hPa
Clouds: Clear
Visibility: 10 miles , 16 km
2020/04/10 07:55 KIDP 100755Z AUTO 04006KT 10SM CLR 04/M05 A3021 RMK AO2 T00361050
 
KIAB - Mcconnell Afb, Kansas, USA
Distance from station: N 84mi, 135km
Updated: Fri, 10-Apr-2020 12:56am PDT
Clear
Clear
 Wind from ENE
Wind: ENE 10 mph , 17 km/h
Temperature: 39°F , 4°C
Wind Chill: 32°F , 0°C
Dew Point: 16°F , -9°C
Humidity: 39%
Barometer: 30.21 inHg , 1023 hPa
Clouds: Clear
Visibility: 10 miles , 16 km
2020/04/10 07:56 KIAB 100756Z AUTO 06009KT 10SM CLR 04/M09 A3021 RMK AO2 SLP235 T00391088 $
KICT - Wichita, Kansas, USA
Distance from station: NNW 88mi, 142km
Updated: Fri, 10-Apr-2020 12:53am PDT
Few Clouds
Few Clouds
 Wind from ENE
Wind: ENE 12 mph , 19 km/h
Temperature: 39°F , 4°C
Wind Chill: 32°F , 0°C
Dew Point: 19°F , -7°C
Humidity: 45%
Barometer: 30.21 inHg , 1023 hPa
Clouds: Few Clouds
Visibility: 10 miles , 16 km
Cloud details: Few Clouds 22000 ft
2020/04/10 07:53 KICT 100753Z 07010KT 10SM FEW220 04/M07 A3021 RMK AO2 SLP230 T00441072 $
 
KAAO - Wichita/Jabara, Kansas, USA
Distance from station: N 93mi, 149km
Updated: Fri, 10-Apr-2020 12:54am PDT
Clear
Clear
 Wind from NE
Wind: NE 10 mph , 17 km/h
Temperature: 36°F , 2°C
Wind Chill: 29°F , -2°C
Dew Point: 19°F , -7°C
Humidity: 52%
Barometer: 30.21 inHg , 1023 hPa
Clouds: Clear
Visibility: 10 miles , 16 km
2020/04/10 07:54 KAAO 100754Z AUTO 05009KT 10SM CLR 02/M07 A3021 RMK AO2 SLP233 T00221072
KWLD - Winfield/Arkansa, Kansas, USA
Distance from station: N 52mi, 84km
Updated: Fri, 10-Apr-2020 12:54am PDT
Clear
Clear
 Wind from NE
Wind: NE 10 mph , 17 km/h
Temperature: 43°F , 6°C
Wind Chill: 37°F , 3°C
Dew Point: 19°F , -7°C
Humidity: 39%
Barometer: 30.22 inHg , 1023.4 hPa
Clouds: Clear
Visibility: 10 miles , 16 km
2020/04/10 07:54 KWLD 100754Z AUTO 05009KT 10SM CLR 06/M07 A3022 RMK AO2 SLP233 T00561067
 
KAVK - Alva, Oklahoma, USA
Distance from station: WNW 94mi, 152km
Updated: Fri, 10-Apr-2020 12:55am PDT
Overcast
Overcast
 Wind from NE
Wind: NE 7 mph , 11 km/h
Temperature: 39°F , 4°C
Wind Chill: 34°F , 1°C
Dew Point: 27°F , -3°C
Humidity: 61%
Barometer: 30.20 inHg , 1022.7 hPa
Clouds: Overcast
Visibility: 10 miles , 16 km
Cloud details: Mostly Cloudy 3600 ft
Overcast 4500 ft
2020/04/10 07:55 KAVK 100755Z AUTO 04006KT 10SM BKN036 OVC045 04/M03 A3020 RMK AO2 PWINO TSNO
KBVO - Bartlesville, Oklahoma, USA
Distance from station: ENE 61mi, 98km
Updated: Fri, 10-Apr-2020 12:53am PDT
Clear
Clear
 Wind from N
Wind: N 10 mph , 17 km/h
Temperature: 43°F , 6°C
Wind Chill: 37°F , 3°C
Dew Point: 25°F , -4°C
Humidity: 49%
Barometer: 30.22 inHg , 1023.4 hPa
Clouds: Clear
Visibility: 10 miles , 16 km
2020/04/10 07:53 KBVO 100753Z AUTO 01009KT 10SM CLR 06/M04 A3022 RMK AO2 SLP228 T00561044
 
KBKN - Blackwell, Oklahoma, USA
Distance from station: NW 29mi, 47km
Updated: Fri, 10-Apr-2020 12:55am PDT
Clear
Clear
 Wind from NE
Wind: NE 17 mph , 28 km/h, Gust: 26 mph , 43 km/h
Temperature: 45°F , 7°C
Wind Chill: 38°F , 3°C
Dew Point: 19°F , -7°C
Humidity: 37%
Barometer: 30.19 inHg , 1022.4 hPa
Clouds: Clear
Visibility: 10 miles , 16 km
2020/04/10 07:55 KBKN 100755Z AUTO 05015G23KT 10SM UP CLR 07/M07 A3019 RMK AO2
KGCM - Claremore, Oklahoma, USA
Distance from station: E 86mi, 138km
Updated: Fri, 10-Apr-2020 12:55am PDT
Clear
Clear
 Wind from NE
Wind: NE 8 mph , 13 km/h
Temperature: 45°F , 7°C
Wind Chill: 41°F , 5°C
Dew Point: 14°F , -10°C
Humidity: 29%
Barometer: 30.19 inHg , 1022.4 hPa
Clouds: Clear
Visibility: 10 miles , 16 km
2020/04/10 07:55 KGCM 100755Z AUTO 04007KT 10SM CLR 07/M10 A3019 RMK AO2
 
KCQB - Chandler, Oklahoma, USA
Distance from station: SSE 50mi, 80km
Updated: Fri, 10-Apr-2020 12:55am PDT
Clear
Clear
 Wind from NNE
Wind: NNE 3 mph , 6 km/h
Temperature: 46°F , 8°C
Dew Point: 32°F , 0°C
Humidity: 57%
Barometer: 30.17 inHg , 1021.7 hPa
Clouds: Clear
Visibility: 10 miles , 16 km
2020/04/10 07:55 KCQB 100755Z AUTO 03003KT 10SM CLR 08/00 A3017 RMK AO2 T00780000
KCUH - Cushing, Oklahoma, USA
Distance from station: SSE 35mi, 57km
Updated: Fri, 10-Apr-2020 12:55am PDT
Clear
Clear
 Wind from NE
Wind: NE 8 mph , 13 km/h
Temperature: 48°F , 9°C
Wind Chill: 44°F , 7°C
Dew Point: 27°F , -3°C
Humidity: 43%
Barometer: 30.17 inHg , 1021.7 hPa
Clouds: Clear
Visibility: 10 miles , 16 km
2020/04/10 07:55 KCUH 100755Z AUTO 05007KT 10SM CLR 09/M03 A3017 RMK AO2 T00851028
 
KRQO - El Reno Muni, Oklahoma, USA
Distance from station: SW 85mi, 137km
Updated: Fri, 10-Apr-2020 12:50am PDT
Clear
Clear
 Wind from NNE
Wind: NNE 10 mph , 17 km/h
Temperature: 43°F , 6°C
Wind Chill: 37°F , 3°C
Dew Point: 36°F , 2°C
Humidity: 76%
Barometer: 30.17 inHg , 1021.7 hPa
Clouds: Clear
Visibility: 10 miles , 16 km
2020/04/10 07:50 KRQO 100750Z AUTO 03009KT 10SM CLR 06/02 A3017 RMK AO2 TSNO T00650016
KEND - Enid/Vance Afb, Oklahoma, USA
Distance from station: W 50mi, 81km
Updated: Fri, 10-Apr-2020 12:56am PDT
Clear
Clear
 Wind from ENE
Wind: ENE 9 mph , 15 km/h
Temperature: 45°F , 7°C
Wind Chill: 40°F , 4°C
Dew Point: 25°F , -4°C
Humidity: 46%
Barometer: 30.17 inHg , 1021.7 hPa
Clouds: Clear
Visibility: 10 miles , 16 km
2020/04/10 07:56 KEND 100756Z AUTO 06008KT 10SM CLR 07/M04 A3017 RMK AO2 SLP217 T00681040 $
 
KWDG - Enid/Woodring, Oklahoma, USA
Distance from station: W 42mi, 67km
Updated: Fri, 10-Apr-2020 12:55am PDT
Clear
Clear
 Wind from NE
Wind: NE 8 mph , 13 km/h
Temperature: 43°F , 6°C
Wind Chill: 38°F , 3°C
Dew Point: 28°F , -2°C
Humidity: 57%
Barometer: 30.17 inHg , 1021.7 hPa
Clouds: Clear
Visibility: 10 miles , 16 km
2020/04/10 07:55 KWDG 100755Z AUTO 04007KT 10SM CLR 06/M02 A3017 RMK AO2
KGOK - Guthrie, Oklahoma, USA
Distance from station: SSW 44mi, 71km
Updated: Fri, 10-Apr-2020 12:53am PDT
Clear
Clear
 Wind from NE
Wind: NE 7 mph , 11 km/h
Temperature: 46°F , 8°C
Wind Chill: 42°F , 6°C
Dew Point: 28°F , -2°C
Humidity: 50%
Barometer: 30.16 inHg , 1021.3 hPa
Clouds: Clear
Visibility: 10 miles , 16 km
2020/04/10 07:53 KGOK 100753Z AUTO 05006KT 10SM CLR 08/M02 A3016 RMK AO2 SLP213 T00781017
 
KOUN - Norman/Westheime, Oklahoma, USA
Distance from station: SSW 84mi, 136km
Updated: Fri, 10-Apr-2020 12:55am PDT
Clear
Clear
 Wind from NNE
Wind: NNE 8 mph , 13 km/h
Temperature: 45°F , 7°C
Wind Chill: 41°F , 5°C
Dew Point: 34°F , 1°C
Humidity: 66%
Barometer: 30.12 inHg , 1020 hPa
Clouds: Clear
Visibility: 10 miles , 16 km
2020/04/10 07:55 KOUN 100755Z AUTO 02007KT 10SM CLR 07/01 A3012 RMK AO2 PWINO T00720009
KOKC - Oklahoma City, Oklahoma, USA
Distance from station: SSW 78mi, 126km
Updated: Fri, 10-Apr-2020 12:52am PDT
Few Clouds
Few Clouds
 Wind from NE
Wind: NE 12 mph , 19 km/h
Temperature: 50°F , 10°C
Wind Chill: 45°F , 7°C
Dew Point: 30°F , -1°C
Humidity: 47%
Barometer: 30.15 inHg , 1021 hPa
Clouds: Few Clouds
Visibility: 10 miles , 16 km
Cloud details: Few Clouds 25000 ft
2020/04/10 07:52 KOKC 100752Z 05010KT 10SM FEW250 10/M01 A3015 RMK AO2 SLP203 T01001011
 
KPWA - Okla City/Wiley, Oklahoma, USA
Distance from station: SSW 70mi, 113km
Updated: Fri, 10-Apr-2020 12:53am PDT
Clear
Clear
 Wind from NNE
Wind: NNE 12 mph , 19 km/h
Temperature: 50°F , 10°C
Wind Chill: 45°F , 7°C
Dew Point: 32°F , 0°C
Humidity: 50%
Barometer: 30.16 inHg , 1021.3 hPa
Clouds: Clear
Visibility: 10 miles , 16 km
2020/04/10 07:53 KPWA 100753Z AUTO 03010KT 10SM CLR 10/00 A3016 RMK AO2 SLP208 T01000000
KRCE - Okla City/Page, Oklahoma, USA
Distance from station: SW 78mi, 126km
Updated: Fri, 10-Apr-2020 12:55am PDT

 Wind from NE
Wind: NE 9 mph , 15 km/h
Temperature: 43°F , 6°C
Wind Chill: 38°F , 3°C
Dew Point: 36°F , 2°C
Humidity: 76%
Barometer: 30.16 inHg , 1021.3 hPa
Visibility: 10 miles , 16 km
2020/04/10 07:55 KRCE 100755Z AUTO 04008KT 10SM 06/02 A3016 RMK AO2
 
KOKM - Okmulgee, Oklahoma, USA
Distance from station: SE 79mi, 127km
Updated: Fri, 10-Apr-2020 12:55am PDT
Clear
Clear
 Wind from NNE
Wind: NNE 9 mph , 15 km/h
Temperature: 48°F , 9°C
Wind Chill: 44°F , 7°C
Dew Point: 32°F , 0°C
Humidity: 54%
Barometer: 30.16 inHg , 1021.3 hPa
Clouds: Clear
Visibility: 10 miles , 16 km
2020/04/10 07:55 KOKM 100755Z AUTO 03008KT 10SM CLR 09/00 A3016 RMK AO2 T00851005
KPNC - Ponca City, Oklahoma, USA
Distance from station: N 22mi, 36km
Updated: Fri, 10-Apr-2020 12:53am PDT
Clear
Clear
 Wind from NE
Wind: NE 13 mph , 20 km/h
Temperature: 45°F , 7°C
Wind Chill: 39°F , 4°C
Dew Point: 21°F , -6°C
Humidity: 39%
Barometer: 30.19 inHg , 1022.4 hPa
Clouds: Clear
Visibility: 10 miles , 16 km
2020/04/10 07:53 KPNC 100753Z AUTO 05011KT 10SM CLR 07/M06 A3019 RMK AO2 SLP221 T00671056
 
KSNL - Shawnee, Oklahoma, USA
Distance from station: S 74mi, 119km
Updated: Fri, 10-Apr-2020 12:55am PDT
Clear
Clear
 Wind from NNE
Wind: NNE 10 mph , 17 km/h
Temperature: 46°F , 8°C
Wind Chill: 41°F , 5°C
Dew Point: 34°F , 1°C
Humidity: 62%
Barometer: 30.15 inHg , 1021 hPa
Clouds: Clear
Visibility: 10 miles , 16 km
2020/04/10 07:55 KSNL 100755Z AUTO 03009KT 10SM CLR 08/01 A3015 RMK AO2 T00800010
KSWO - Stillwater, Oklahoma, USA
Distance from station: S 17mi, 28km
Updated: Fri, 10-Apr-2020 12:53am PDT
Clear
Clear
 Wind from NE
Wind: NE 10 mph , 17 km/h
Temperature: 46°F , 8°C
Wind Chill: 41°F , 5°C
Dew Point: 27°F , -3°C
Humidity: 46%
Barometer: 30.18 inHg , 1022 hPa
Clouds: Clear
Visibility: 10 miles , 16 km
2020/04/10 07:53 KSWO 100753Z AUTO 04009KT 10SM CLR 08/M03 A3018 RMK AO2 SLP213 T00831033
 
KTIK - Tinker Afb, Oklahoma, USA
Distance from station: SSW 72mi, 115km
Updated: Fri, 10-Apr-2020 12:56am PDT
Clear
Clear
 Wind from NE
Wind: NE 10 mph , 17 km/h
Temperature: 48°F , 9°C
Wind Chill: 44°F , 7°C
Dew Point: 30°F , -1°C
Humidity: 50%
Barometer: 30.14 inHg , 1020.7 hPa
Clouds: Clear
Visibility: 10 miles , 16 km
2020/04/10 07:56 KTIK 100756Z AUTO 04009KT 10SM CLR 09/M01 A3014 RMK AO2 SLP210 T00881008
KTUL - Tulsa, Oklahoma, USA
Distance from station: ESE 65mi, 105km
Updated: Fri, 10-Apr-2020 12:53am PDT
Clear
Clear
 Wind from N
Wind: N 10 mph , 17 km/h
Temperature: 48°F , 9°C
Wind Chill: 44°F , 7°C
Dew Point: 25°F , -4°C
Humidity: 40%
Barometer: 30.18 inHg , 1022 hPa
Clouds: Clear
Visibility: 10 miles , 16 km
2020/04/10 07:53 KTUL 100753Z 01009KT 10SM CLR 09/M04 A3018 RMK AO2 SLP217 T00891039

Metar display script from Saratoga-Weather.org